createdAt,value
2022-08-07T00:00:12.617Z,55.50
2022-08-07T00:02:44.112Z,55.50
2022-08-07T00:05:11.214Z,55.50
2022-08-07T00:07:41.248Z,55.50
2022-08-07T00:10:27.095Z,55.60
2022-08-07T00:13:00.001Z,55.50
2022-08-07T00:15:37.798Z,55.60
2022-08-07T00:18:05.024Z,56.00
2022-08-07T00:20:34.426Z,56.40
2022-08-07T00:23:01.953Z,56.60
2022-08-07T00:25:28.427Z,56.30
2022-08-07T00:28:04.081Z,56.30
2022-08-07T00:30:31.407Z,56.50
2022-08-07T00:32:58.459Z,56.40
2022-08-07T00:35:25.036Z,56.40
2022-08-07T00:37:51.491Z,56.40
2022-08-07T00:40:40.191Z,56.40
2022-08-07T00:43:04.429Z,56.40
2022-08-07T00:45:36.555Z,56.50
2022-08-07T00:48:09.587Z,56.60
2022-08-07T00:50:51.384Z,56.50
2022-08-07T00:53:18.197Z,56.50
2022-08-07T00:56:02.117Z,56.90
2022-08-07T00:58:28.934Z,57.00
2022-08-07T01:00:55.396Z,56.80
2022-08-07T01:03:54.583Z,56.80
2022-08-07T01:06:08.666Z,57.00
2022-08-07T01:08:35.142Z,57.10
2022-08-07T01:11:10.770Z,57.40
2022-08-07T01:13:55.722Z,57.50
2022-08-07T01:16:30.385Z,57.50
2022-08-07T01:18:57.316Z,58.10
2022-08-07T01:21:26.088Z,57.40
2022-08-07T01:23:53.439Z,57.30
2022-08-07T01:26:20.306Z,57.40
2022-08-07T01:28:48.490Z,57.40
2022-08-07T01:31:15.393Z,57.40
2022-08-07T01:33:53.613Z,57.70
2022-08-07T01:36:34.094Z,57.70
2022-08-07T01:39:09.425Z,57.60
2022-08-07T01:41:36.771Z,57.70
2022-08-07T01:44:04.896Z,57.90
2022-08-07T01:46:31.356Z,58.20
2022-08-07T01:48:58.035Z,58.10
2022-08-07T01:52:04.109Z,58.20
2022-08-07T01:54:32.555Z,58.20
2022-08-07T01:56:59.383Z,58.40
2022-08-07T01:59:30.884Z,58.30
2022-08-07T02:02:02.646Z,58.30
2022-08-07T02:04:31.943Z,58.20
2022-08-07T02:06:58.449Z,58.30
2022-08-07T02:09:52.087Z,58.30
2022-08-07T02:12:11.825Z,58.40
2022-08-07T02:14:44.188Z,58.50
2022-08-07T02:17:13.071Z,58.70
2022-08-07T02:20:05.156Z,58.90
2022-08-07T02:22:38.294Z,58.90
2022-08-07T02:25:13.832Z,58.90
2022-08-07T02:27:44.041Z,59.70
2022-08-07T02:30:17.805Z,59.20
2022-08-07T02:33:00.751Z,59.20
2022-08-07T02:36:28.872Z,59.10
2022-08-07T02:38:18.658Z,59.30
2022-08-07T02:40:53.845Z,59.30
2022-08-07T02:43:22.009Z,59.50
2022-08-07T02:45:59.117Z,59.60
2022-08-07T02:48:28.310Z,59.60
2022-08-07T02:50:54.890Z,59.80
2022-08-07T02:53:21.563Z,59.90
2022-08-07T02:56:02.129Z,60.00
2022-08-07T02:58:33.321Z,60.20
2022-08-07T03:01:00.240Z,60.40
2022-08-07T03:03:29.645Z,60.40
2022-08-07T03:06:16.242Z,60.40
2022-08-07T03:08:43.237Z,60.30
2022-08-07T03:11:09.703Z,60.40
2022-08-07T03:13:39.136Z,60.40
2022-08-07T03:16:16.097Z,60.70
2022-08-07T03:18:44.671Z,60.60
2022-08-07T03:21:14.178Z,60.60
2022-08-07T03:24:20.999Z,60.70
2022-08-07T03:26:31.924Z,60.70
2022-08-07T03:28:58.420Z,60.70
2022-08-07T03:31:42.103Z,60.60
2022-08-07T03:34:10.147Z,60.60
2022-08-07T03:36:45.396Z,60.60
2022-08-07T03:39:11.940Z,60.60
2022-08-07T03:41:42.410Z,60.60
2022-08-07T03:44:15.338Z,60.90
2022-08-07T03:47:13.122Z,61.00
2022-08-07T03:49:28.385Z,61.10
2022-08-07T03:52:00.982Z,61.10
2022-08-07T03:54:36.344Z,61.20
2022-08-07T03:58:35.502Z,61.20
2022-08-07T04:00:01.647Z,61.10
2022-08-07T04:02:30.394Z,61.10
2022-08-07T04:04:58.173Z,61.10
2022-08-07T04:07:25.498Z,61.00
2022-08-07T04:10:02.883Z,60.90
2022-08-07T04:12:29.514Z,60.90
2022-08-07T04:14:56.299Z,61.00
2022-08-07T04:17:22.810Z,61.00
2022-08-07T04:20:09.254Z,60.90
2022-08-07T04:22:35.722Z,60.90
2022-08-07T04:25:02.337Z,61.00
2022-08-07T04:27:28.880Z,61.00
2022-08-07T04:30:04.502Z,61.00
2022-08-07T04:32:34.692Z,61.60
2022-08-07T04:35:01.621Z,61.10
2022-08-07T04:37:30.526Z,61.20
2022-08-07T04:40:16.944Z,61.30
2022-08-07T04:42:46.163Z,61.20
2022-08-07T04:45:44.487Z,61.40
2022-08-07T04:48:05.984Z,61.30
2022-08-07T04:50:36.998Z,61.40
2022-08-07T04:53:03.490Z,61.30
2022-08-07T04:58:15.330Z,61.30
2022-08-07T04:58:33.842Z,62.20
2022-08-07T05:01:02.903Z,61.90
2022-08-07T05:04:00.590Z,61.90
2022-08-07T05:06:19.138Z,62.10
2022-08-07T05:09:00.958Z,62.20
2022-08-07T05:11:58.316Z,62.50
2022-08-07T05:14:52.440Z,62.70
2022-08-07T05:17:01.441Z,62.70
2022-08-07T05:19:44.005Z,62.60
2022-08-07T05:22:11.141Z,62.70
2022-08-07T05:24:40.307Z,62.70
2022-08-07T05:27:07.172Z,62.70
2022-08-07T05:29:50.959Z,62.70
2022-08-07T05:32:18.465Z,62.50
2022-08-07T05:34:46.334Z,62.30
2022-08-07T05:37:13.132Z,62.30
2022-08-07T05:40:17.227Z,62.20
2022-08-07T05:42:34.668Z,62.10
2022-08-07T05:45:14.475Z,62.10
2022-08-07T05:48:01.617Z,62.00
2022-08-07T05:50:29.268Z,62.00
2022-08-07T05:52:55.901Z,61.90
2022-08-07T05:55:22.353Z,61.80
2022-08-07T05:57:49.393Z,61.80
2022-08-07T06:00:17.843Z,61.80
2022-08-07T06:02:44.470Z,61.90
2022-08-07T06:05:15.694Z,61.90
2022-08-07T06:07:42.513Z,61.90
2022-08-07T06:10:28.949Z,61.90
2022-08-07T06:12:55.771Z,61.90
2022-08-07T06:15:22.235Z,61.70
2022-08-07T06:18:06.043Z,61.60
2022-08-07T06:20:50.011Z,61.50
2022-08-07T06:23:46.084Z,61.50
2022-08-07T06:26:05.402Z,61.50
2022-08-07T06:28:33.639Z,61.60
2022-08-07T06:31:00.115Z,61.50
2022-08-07T06:33:26.598Z,61.40
2022-08-07T06:36:12.427Z,61.40
2022-08-07T06:38:39.549Z,61.30
2022-08-07T06:42:00.866Z,61.30
2022-08-07T06:44:11.869Z,61.30
2022-08-07T06:46:39.999Z,61.10
2022-08-07T06:49:06.519Z,61.10
2022-08-07T06:51:33.905Z,61.00
2022-08-07T06:55:28.865Z,60.80
2022-08-07T06:56:49.489Z,60.70
2022-08-07T07:00:11.647Z,60.70
2022-08-07T07:02:03.076Z,60.70
2022-08-07T07:04:32.817Z,60.70
2022-08-07T07:07:01.337Z,60.80
2022-08-07T07:09:31.408Z,60.90
2022-08-07T07:12:07.443Z,60.90
2022-08-07T07:14:43.170Z,60.80
2022-08-07T07:17:10.644Z,60.70
2022-08-07T07:19:57.329Z,60.60
2022-08-07T07:22:37.048Z,60.40
2022-08-07T07:26:31.498Z,60.40
2022-08-07T07:28:03.287Z,60.30
2022-08-07T07:30:39.598Z,60.20
2022-08-07T07:33:06.660Z,60.20
2022-08-07T07:35:54.080Z,60.20
2022-08-07T07:38:20.757Z,60.10
2022-08-07T07:40:47.953Z,60.00
2022-08-07T07:43:18.360Z,59.80
2022-08-07T07:46:38.176Z,59.70
2022-08-07T07:48:35.789Z,59.40
2022-08-07T07:51:02.678Z,59.10
2022-08-07T07:53:34.952Z,58.80
2022-08-07T07:56:01.546Z,58.40
2022-08-07T07:58:28.038Z,58.40
2022-08-07T08:00:54.501Z,58.20
2022-08-07T08:04:06.545Z,58.00
2022-08-07T08:06:08.202Z,57.70
2022-08-07T08:08:39.542Z,57.40
2022-08-07T08:11:13.582Z,57.20
2022-08-07T08:13:53.782Z,57.00
2022-08-07T08:16:24.965Z,56.70
2022-08-07T08:18:51.874Z,56.10
2022-08-07T08:21:18.326Z,54.80
2022-08-07T08:23:45.696Z,54.30
2022-08-07T08:26:12.680Z,53.90
2022-08-07T08:28:45.189Z,52.90
2022-08-07T08:31:15.991Z,52.80
2022-08-07T08:33:49.059Z,52.60
2022-08-07T08:36:16.690Z,52.50
2022-08-07T08:38:43.412Z,52.20
2022-08-07T08:41:11.972Z,51.80
2022-08-07T08:43:42.444Z,51.60
2022-08-07T08:46:09.813Z,51.30
2022-08-07T08:48:38.401Z,51.10
2022-08-07T08:51:14.368Z,50.90
2022-08-07T08:53:49.671Z,50.00
2022-08-07T08:56:16.992Z,48.90
2022-08-07T08:58:43.951Z,49.10
2022-08-07T09:01:15.216Z,48.70
2022-08-07T09:03:49.854Z,48.60
2022-08-07T09:06:19.560Z,48.50
2022-08-07T09:08:46.814Z,48.30
2022-08-07T09:11:14.004Z,48.10
2022-08-07T09:13:51.541Z,47.00
2022-08-07T09:16:23.678Z,46.30
2022-08-07T09:18:58.777Z,45.70
2022-08-07T09:21:58.189Z,45.00
2022-08-07T09:24:31.270Z,44.80
2022-08-07T09:26:58.353Z,44.70
2022-08-07T09:30:04.645Z,44.70
2022-08-07T09:32:18.834Z,44.60
2022-08-07T09:34:53.839Z,44.60
2022-08-07T09:37:20.809Z,44.60
2022-08-07T09:40:07.186Z,44.60
2022-08-07T09:42:35.284Z,43.90
2022-08-07T09:46:28.712Z,43.50
2022-08-07T09:47:59.590Z,43.30
2022-08-07T09:50:30.016Z,43.30
2022-08-07T09:52:56.798Z,43.20
2022-08-07T09:56:02.771Z,42.60
2022-08-07T09:58:09.740Z,42.00
2022-08-07T10:00:38.088Z,42.10
2022-08-07T10:03:08.343Z,41.60
2022-08-07T10:05:59.419Z,41.50
2022-08-07T10:08:27.847Z,41.40
2022-08-07T10:12:00.249Z,41.50
2022-08-07T10:14:00.570Z,41.10
2022-08-07T10:16:28.546Z,41.00
2022-08-07T10:18:55.085Z,40.60
2022-08-07T10:22:14.276Z,40.80
2022-08-07T10:24:08.487Z,41.00
2022-08-07T10:26:35.309Z,40.80
2022-08-07T10:29:01.780Z,40.30
2022-08-07T10:31:28.250Z,40.10
2022-08-07T10:34:06.524Z,40.10
2022-08-07T10:36:42.073Z,39.60
2022-08-07T10:39:12.038Z,38.50
2022-08-07T10:41:51.350Z,37.80
2022-08-07T10:44:37.364Z,37.40
2022-08-07T10:47:11.534Z,37.40
2022-08-07T10:49:49.209Z,37.60
2022-08-07T10:52:17.611Z,36.60
2022-08-07T10:54:53.141Z,36.90
2022-08-07T10:57:21.673Z,36.30
2022-08-07T11:00:00.657Z,35.50
2022-08-07T11:02:34.336Z,35.40
2022-08-07T11:05:08.543Z,34.70
2022-08-07T11:07:59.237Z,35.10
2022-08-07T11:10:27.333Z,35.70
2022-08-07T11:13:02.059Z,36.00
2022-08-07T11:15:31.469Z,35.80
2022-08-07T11:18:03.418Z,35.70
2022-08-07T11:20:30.906Z,35.50
2022-08-07T11:22:57.366Z,35.60
2022-08-07T11:25:23.843Z,36.40
2022-08-07T11:28:03.026Z,36.30
2022-08-07T11:30:41.930Z,36.40
2022-08-07T11:33:14.222Z,35.90
2022-08-07T11:36:00.272Z,35.00
2022-08-07T11:38:28.131Z,34.30
2022-08-07T11:40:54.881Z,34.90
2022-08-07T11:43:41.239Z,34.00
2022-08-07T11:46:09.306Z,34.10
2022-08-07T11:48:35.844Z,33.80
2022-08-07T11:51:04.066Z,33.70
2022-08-07T11:53:35.669Z,33.90
2022-08-07T11:56:26.168Z,34.00
2022-08-07T11:58:49.693Z,33.40
2022-08-07T12:01:20.398Z,33.50
2022-08-07T12:03:48.755Z,33.30
2022-08-07T12:06:39.960Z,32.50
2022-08-07T12:09:01.754Z,32.40
2022-08-07T12:11:32.404Z,31.90
2022-08-07T12:13:59.163Z,31.70
2022-08-07T12:16:29.949Z,31.60
2022-08-07T12:18:57.263Z,31.40
2022-08-07T12:21:55.079Z,31.40
2022-08-07T12:24:12.481Z,31.70
2022-08-07T12:26:56.638Z,32.00
2022-08-07T12:29:37.504Z,31.60
2022-08-07T12:32:12.084Z,31.30
2022-08-07T12:34:39.182Z,31.50
2022-08-07T12:37:08.234Z,31.80
2022-08-07T12:39:51.006Z,31.40
2022-08-07T12:42:18.056Z,31.30
2022-08-07T12:44:53.893Z,31.10
2022-08-07T12:47:27.128Z,31.10
2022-08-07T12:50:04.345Z,30.90
2022-08-07T12:52:34.146Z,30.70
2022-08-07T12:55:05.251Z,29.70
2022-08-07T12:57:39.004Z,29.80
2022-08-07T13:00:26.083Z,29.70
2022-08-07T13:02:57.637Z,29.90
2022-08-07T13:06:02.550Z,29.90
2022-08-07T13:08:11.958Z,29.60
2022-08-07T13:10:51.644Z,29.80
2022-08-07T13:13:48.535Z,29.80
2022-08-07T13:16:05.285Z,29.80
2022-08-07T13:18:34.206Z,29.80
2022-08-07T13:21:00.874Z,29.50
2022-08-07T13:24:00.634Z,29.60
2022-08-07T13:26:18.195Z,29.50
2022-08-07T13:28:44.900Z,29.10
2022-08-07T13:31:13.376Z,29.30
2022-08-07T13:34:32.937Z,29.20
2022-08-07T13:36:26.602Z,29.20
2022-08-07T13:38:54.441Z,29.40
2022-08-07T13:41:21.222Z,29.40
2022-08-07T13:43:52.520Z,29.20
2022-08-07T13:46:28.907Z,29.30
2022-08-07T13:48:59.685Z,29.10
2022-08-07T13:51:28.112Z,28.90
2022-08-07T13:54:22.569Z,29.10
2022-08-07T13:56:52.122Z,28.80
2022-08-07T13:59:22.174Z,28.90
2022-08-07T14:01:51.363Z,28.90
2022-08-07T14:04:29.891Z,29.00
2022-08-07T14:07:02.694Z,28.90
2022-08-07T14:10:02.303Z,29.10
2022-08-07T14:12:16.764Z,29.10
2022-08-07T14:14:53.959Z,28.80
2022-08-07T14:18:12.432Z,28.90
2022-08-07T14:20:43.596Z,28.90
2022-08-07T14:22:53.318Z,28.90
2022-08-07T14:25:22.473Z,28.90
2022-08-07T14:28:20.978Z,28.80
2022-08-07T14:30:35.850Z,28.90
2022-08-07T14:33:07.214Z,28.80
2022-08-07T14:35:44.798Z,29.00
2022-08-07T14:38:30.562Z,29.10
2022-08-07T14:40:58.013Z,28.90
2022-08-07T14:43:58.429Z,28.70
2022-08-07T14:46:11.030Z,28.90
2022-08-07T14:48:43.923Z,28.90
2022-08-07T14:51:16.127Z,29.20
2022-08-07T14:54:08.558Z,29.10
2022-08-07T14:56:30.608Z,29.20
2022-08-07T14:58:57.113Z,29.30
2022-08-07T15:01:23.587Z,29.40
2022-08-07T15:03:52.192Z,29.30
2022-08-07T15:06:19.678Z,29.20
2022-08-07T15:08:50.410Z,29.50
2022-08-07T15:11:48.738Z,29.60
2022-08-07T15:14:10.143Z,29.30
2022-08-07T15:16:37.337Z,29.30
2022-08-07T15:19:03.804Z,29.60
2022-08-07T15:25:14.557Z,30.00
2022-08-07T15:27:06.551Z,30.30
2022-08-07T15:30:09.031Z,30.60
2022-08-07T15:32:39.119Z,31.10
2022-08-07T15:35:05.936Z,31.30
2022-08-07T15:40:34.941Z,31.60
2022-08-07T15:43:01.746Z,31.70
2022-08-07T15:48:14.941Z,32.10
2022-08-07T15:51:09.021Z,32.10
2022-08-07T15:53:52.065Z,31.90
2022-08-07T15:56:19.719Z,31.90
2022-08-07T15:58:52.184Z,31.70
2022-08-07T16:01:20.153Z,32.10
2022-08-07T16:03:57.294Z,32.10
2022-08-07T16:06:25.061Z,31.90
2022-08-07T16:08:53.013Z,31.50
2022-08-07T16:11:26.342Z,31.50
2022-08-07T16:13:59.128Z,31.50
2022-08-07T16:16:47.768Z,31.60
2022-08-07T16:19:13.067Z,31.60
2022-08-07T16:22:02.668Z,31.90
2022-08-07T16:24:34.232Z,32.00
2022-08-07T16:27:01.835Z,31.70
2022-08-07T16:30:10.235Z,31.90
2022-08-07T16:32:33.126Z,32.00
2022-08-07T16:35:01.208Z,32.30
2022-08-07T16:38:09.208Z,32.80
2022-08-07T16:40:23.417Z,32.50
2022-08-07T16:42:57.079Z,32.70
2022-08-07T16:46:34.751Z,32.70
2022-08-07T16:48:13.652Z,32.70
2022-08-07T16:50:52.782Z,32.70
2022-08-07T16:54:03.041Z,33.00
2022-08-07T16:56:10.852Z,32.90
2022-08-07T16:59:02.384Z,33.00
2022-08-07T17:01:23.806Z,32.90
2022-08-07T17:03:59.971Z,32.40
2022-08-07T17:06:30.683Z,32.40
2022-08-07T17:09:10.497Z,32.70
2022-08-07T17:12:01.798Z,32.70
2022-08-07T17:14:27.376Z,32.80
2022-08-07T17:16:56.188Z,32.60
2022-08-07T17:20:01.094Z,32.90
2022-08-07T17:22:10.500Z,32.80
2022-08-07T17:24:37.163Z,32.80
2022-08-07T17:27:03.640Z,32.60
2022-08-07T17:30:16.053Z,32.90
2022-08-07T17:32:30.809Z,33.10
2022-08-07T17:35:50.123Z,33.20
2022-08-07T17:38:06.077Z,33.10
2022-08-07T17:40:34.557Z,33.00
2022-08-07T17:43:01.065Z,33.10
2022-08-07T17:45:27.525Z,33.20
2022-08-07T17:47:54.540Z,32.80
2022-08-07T17:50:21.753Z,32.70
2022-08-07T17:52:48.339Z,33.20
2022-08-07T17:55:54.825Z,33.50
2022-08-07T17:58:04.217Z,33.70
2022-08-07T18:00:34.280Z,33.60
2022-08-07T18:03:18.082Z,33.90
2022-08-07T18:06:03.377Z,34.00
2022-08-07T18:08:31.537Z,34.20
2022-08-07T18:11:53.603Z,34.60
2022-08-07T18:13:44.489Z,34.90
2022-08-07T18:16:12.085Z,35.20
2022-08-07T18:21:01.263Z,35.50
2022-08-07T18:21:51.831Z,35.70
2022-08-07T18:24:12.081Z,36.30
2022-08-07T18:26:58.553Z,36.60
2022-08-07T18:30:05.928Z,36.90
2022-08-07T18:32:11.469Z,37.30
2022-08-07T18:35:00.992Z,37.50
2022-08-07T18:38:57.454Z,37.80
2022-08-07T18:40:38.615Z,38.20
2022-08-07T18:42:57.309Z,38.40
2022-08-07T18:45:44.819Z,38.50
2022-08-07T18:48:10.238Z,38.80
2022-08-07T18:50:56.700Z,39.20
2022-08-07T18:53:36.526Z,40.00
2022-08-07T18:56:03.777Z,39.50
2022-08-07T18:58:32.677Z,39.70
2022-08-07T19:01:00.885Z,39.80
2022-08-07T19:03:38.134Z,39.90
2022-08-07T19:06:05.640Z,40.20
2022-08-07T19:08:32.121Z,40.50
2022-08-07T19:10:59.156Z,40.60
2022-08-07T19:13:25.636Z,40.90
2022-08-07T19:16:05.658Z,41.10
2022-08-07T19:18:44.656Z,41.30
2022-08-07T19:21:13.943Z,41.50
2022-08-07T19:24:00.247Z,41.70
2022-08-07T19:26:28.725Z,41.80
2022-08-07T19:30:54.441Z,42.00
2022-08-07T19:32:10.875Z,42.20
2022-08-07T19:34:32.784Z,42.50
2022-08-07T19:37:09.875Z,42.80
2022-08-07T19:39:56.375Z,43.10
2022-08-07T19:42:25.144Z,43.30
2022-08-07T19:44:51.794Z,43.50
2022-08-07T19:47:18.260Z,43.70
2022-08-07T19:49:57.581Z,43.90
2022-08-07T19:52:25.473Z,44.20
2022-08-07T19:54:56.186Z,44.60
2022-08-07T19:58:03.626Z,44.70
2022-08-07T20:00:10.473Z,44.90
2022-08-07T20:02:39.039Z,45.00
2022-08-07T20:05:07.749Z,45.20
2022-08-07T20:07:47.704Z,45.40
2022-08-07T20:10:35.397Z,45.50
2022-08-07T20:13:06.193Z,45.60
2022-08-07T20:15:37.264Z,45.80
2022-08-07T20:18:04.422Z,46.00
2022-08-07T20:20:30.996Z,46.20
2022-08-07T20:22:57.469Z,46.40
2022-08-07T20:25:23.921Z,46.50
2022-08-07T20:27:54.148Z,46.50
2022-08-07T20:30:24.783Z,46.50
2022-08-07T20:32:51.960Z,46.60
2022-08-07T20:35:22.020Z,46.70
2022-08-07T20:37:58.964Z,46.70
2022-08-07T20:40:32.641Z,46.90
2022-08-07T20:43:00.974Z,47.00
2022-08-07T20:46:24.519Z,47.20
2022-08-07T20:48:28.852Z,47.40
2022-08-07T20:50:57.091Z,47.60
2022-08-07T20:53:25.887Z,47.70
2022-08-07T20:56:10.699Z,48.10
2022-08-07T20:58:37.172Z,48.20
2022-08-07T21:01:04.927Z,48.40
2022-08-07T21:03:31.612Z,48.50
2022-08-07T21:06:01.341Z,48.50
2022-08-07T21:08:37.548Z,48.70
2022-08-07T21:11:05.307Z,49.00
2022-08-07T21:13:57.130Z,49.20
2022-08-07T21:16:23.569Z,49.20
2022-08-07T21:18:53.289Z,49.80
2022-08-07T21:21:19.849Z,49.80
2022-08-07T21:23:53.611Z,50.00
2022-08-07T21:26:20.069Z,50.20
2022-08-07T21:28:50.845Z,50.20
2022-08-07T21:31:17.701Z,50.40
2022-08-07T21:33:58.074Z,50.60
2022-08-07T21:36:32.117Z,50.90
2022-08-07T21:38:59.147Z,50.90
2022-08-07T21:41:26.480Z,51.00
2022-08-07T21:43:55.779Z,51.30
2022-08-07T21:46:31.277Z,51.10
2022-08-07T21:48:58.437Z,51.20
2022-08-07T21:51:25.941Z,51.20
2022-08-07T21:53:53.526Z,51.30
2022-08-07T21:56:35.809Z,51.30
2022-08-07T21:59:03.476Z,51.50
2022-08-07T22:02:10.939Z,51.80
2022-08-07T22:04:17.733Z,51.90
2022-08-07T22:06:48.803Z,52.20
2022-08-07T22:09:16.394Z,52.40
2022-08-07T22:12:05.685Z,52.60
2022-08-07T22:14:35.117Z,52.60
2022-08-07T22:17:03.994Z,52.80
2022-08-07T22:19:30.659Z,52.90
2022-08-07T22:22:02.601Z,53.00
2022-08-07T22:24:35.148Z,53.10
2022-08-07T22:27:01.608Z,53.30
2022-08-07T22:29:37.696Z,53.50
2022-08-07T22:32:05.883Z,53.60
2022-08-07T22:34:35.990Z,53.60
2022-08-07T22:37:03.473Z,53.80
2022-08-07T22:39:29.978Z,53.70
2022-08-07T22:42:19.415Z,53.80
2022-08-07T22:44:58.164Z,53.70
2022-08-07T22:47:25.042Z,53.80
2022-08-07T22:49:55.092Z,53.90
2022-08-07T22:52:37.285Z,53.90
2022-08-07T22:55:17.135Z,54.10
2022-08-07T22:57:48.828Z,54.40
2022-08-07T23:00:16.441Z,54.50
2022-08-07T23:02:43.179Z,54.60
2022-08-07T23:06:09.777Z,54.50
2022-08-07T23:07:57.388Z,54.60
2022-08-07T23:10:36.477Z,54.70
2022-08-07T23:13:06.388Z,54.80
2022-08-07T23:16:05.824Z,55.00
2022-08-07T23:18:19.557Z,55.30
2022-08-07T23:20:53.546Z,55.40
2022-08-07T23:24:04.582Z,55.50
2022-08-07T23:26:06.728Z,55.70
2022-08-07T23:28:33.197Z,55.70
2022-08-07T23:31:06.575Z,55.90
2022-08-07T23:34:36.301Z,56.20
2022-08-07T23:36:29.042Z,56.50
2022-08-07T23:38:56.272Z,56.60
2022-08-07T23:41:24.394Z,56.60
2022-08-07T23:44:00.189Z,56.70
2022-08-07T23:46:27.497Z,56.90
2022-08-07T23:48:53.985Z,57.10
2022-08-07T23:52:59.746Z,57.20
2022-08-07T23:54:11.756Z,57.30
2022-08-07T23:56:54.147Z,57.40
